Terminal Aerodrome Forecast
Issued by NWS Lubbock, TX

Home | Current Version | Previous Version | Text Only | Print | Product List | Glossary On
Versions: 1 2 3 4 5 6 7 8 9 10 11 12 13 14 15
000
FTUS44 KLUB 291726
TAFLBB
TAF
KLBB 291726Z 2918/3018 36020G30KT P6SM BKN015 OVC035
      TEMPO 2919/2923 -RA
     FM301000 32020KT P6SM FEW200=

USA.gov is the U.S. government's official web portal to all federal, state and local government web resources and services.